Time;durP1;ratioP1;P1;durP2;ratioP2;P2;SDS_P1;SDS_P2;PMS_P1;PMS_P2;Temp;Humidity;BMP_temperature;BMP_pressure;BME280_temperature;BME280_humidity;BME280_pressure;Samples;Min_cycle;Max_cycle;Signal;HPM_P1;HPM_P2
2023/08/12 00:05:53;;;;;;;4.53;3.25;;;;;;;19.03;64.51;101577.94;15677006;28;19940;-70
2023/08/12 00:13:27;;;;;;;6.30;3.60;;;;;;;18.98;64.74;101581.41;15659540;28;20079;-71
2023/08/12 00:21:00;;;;;;;8.15;3.95;;;;;;;18.72;66.06;101571.94;15675667;28;20073;-71
2023/08/12 00:28:35;;;;;;;6.25;3.75;;;;;;;18.77;65.66;101569.31;15673758;28;20455;-71
2023/08/12 00:36:08;;;;;;;4.75;3.88;;;;;;;18.53;65.50;101526.97;15657639;28;20052;-71
2023/08/12 00:43:42;;;;;;;6.50;4.15;;;;;;;18.66;66.20;101555.75;15658488;28;20060;-72
2023/08/12 00:51:16;;;;;;;7.30;4.00;;;;;;;18.79;65.62;101544.59;15659137;28;20426;-72
2023/08/12 00:58:51;;;;;;;4.57;3.75;;;;;;;18.66;66.19;101537.53;15659400;28;20569;-72
2023/08/12 01:06:25;;;;;;;6.28;4.10;;;;;;;18.74;65.47;101525.47;15676229;28;20045;-71
2023/08/12 01:14:05;;;;;;;11.15;4.28;;;;;;;18.55;65.95;101519.38;15627822;28;20041;-71
2023/08/12 01:21:44;;;;;;;6.13;3.88;;;;;;;18.53;66.15;101516.09;15612775;28;20512;-71
2023/08/12 01:29:19;;;;;;;6.75;4.30;;;;;;;18.44;65.93;101506.69;15575094;28;20140;-70
2023/08/12 01:36:59;;;;;;;6.70;4.30;;;;;;;18.35;66.69;101507.06;15594669;28;20072;-72
2023/08/12 01:44:33;;;;;;;4.63;4.10;;;;;;;18.33;66.54;101495.63;15602695;28;20403;-71
2023/08/12 01:52:06;;;;;;;5.45;3.95;;;;;;;18.22;66.68;101493.75;15621481;28;20048;-71
2023/08/12 01:59:41;;;;;;;6.03;4.20;;;;;;;18.20;66.80;101476.91;15603820;28;20046;-71
2023/08/12 02:07:14;;;;;;;8.60;4.55;;;;;;;18.33;66.12;101465.72;15604808;28;20111;-72
2023/08/12 02:14:48;;;;;;;4.78;4.15;;;;;;;18.44;66.13;101468.63;15621300;28;20037;-71
2023/08/12 02:22:21;;;;;;;6.53;4.50;;;;;;;18.37;66.47;101457.88;15664579;28;20499;-72
2023/08/12 02:29:55;;;;;;;7.72;4.13;;;;;;;18.45;66.10;101445.81;15661458;28;20032;-71
2023/08/12 02:37:28;;;;;;;6.95;4.47;;;;;;;18.47;66.02;101452.66;15664541;28;20053;-71
2023/08/12 02:45:02;;;;;;;5.43;4.25;;;;;;;18.50;66.32;101435.00;15681873;28;20499;-71
2023/08/12 02:52:36;;;;;;;6.50;4.57;;;;;;;18.40;66.15;101435.66;15662185;22;20563;-55
2023/08/12 03:00:13;;;;;;;10.07;4.93;;;;;;;18.46;65.91;101431.94;15554243;28;20042;-47
2023/08/12 03:07:46;;;;;;;7.43;4.90;;;;;;;18.32;66.07;101423.28;15791657;23;20076;-69
2023/08/12 03:15:21;;;;;;;8.23;4.97;;;;;;;18.28;66.31;101422.16;15738629;28;20403;-69
2023/08/12 03:22:54;;;;;;;7.25;5.30;;;;;;;18.31;66.35;101405.34;15723130;28;20430;-70
2023/08/12 03:30:30;;;;;;;7.85;4.93;;;;;;;17.96;66.58;101361.25;15736665;28;20032;-70
2023/08/12 03:38:04;;;;;;;6.68;5.00;;;;;;;18.04;66.73;101399.69;15738760;28;20048;-70
2023/08/12 03:45:42;;;;;;;5.18;4.68;;;;;;;17.92;67.01;101398.13;15738708;28;20067;-69
2023/08/12 03:53:17;;;;;;;9.02;5.43;;;;;;;17.98;67.05;101386.28;15737109;28;20048;-70
2023/08/12 04:00:52;;;;;;;6.47;5.15;;;;;;;17.71;67.83;101377.84;15736817;28;20052;-72
2023/08/12 04:08:25;;;;;;;6.63;4.90;;;;;;;17.80;67.83;101387.28;15741329;28;20137;-70
2023/08/12 04:16:00;;;;;;;6.95;4.95;;;;;;;17.67;66.46;101393.78;15707947;28;20260;-70
2023/08/12 04:23:34;;;;;;;8.68;5.03;;;;;;;17.94;65.67;101382.38;15691501;28;20106;-71
2023/08/12 04:31:08;;;;;;;6.78;4.50;;;;;;;18.23;65.04;101369.59;15696169;28;20059;-70
2023/08/12 04:38:46;;;;;;;8.15;5.32;;;;;;;18.35;64.95;101356.75;15690918;28;20059;-70
2023/08/12 04:46:21;;;;;;;7.15;4.70;;;;;;;18.68;64.93;101371.41;15692600;28;20041;-70
2023/08/12 04:53:55;;;;;;;8.13;4.47;;;;;;;18.79;64.41;101365.06;15699669;28;20051;-70
2023/08/12 05:01:29;;;;;;;8.48;4.63;;;;;;;19.24;63.35;101356.72;15701164;28;20539;-69
2023/08/12 05:09:03;;;;;;;5.97;3.90;;;;;;;19.25;62.94;101352.91;15701633;28;20049;-71
2023/08/12 05:16:39;;;;;;;11.45;4.25;;;;;;;19.47;62.37;101349.38;15740693;28;20473;-71
2023/08/12 05:24:12;;;;;;;5.20;3.45;;;;;;;19.67;61.32;101337.91;15746102;28;20109;-69
2023/08/12 05:31:47;;;;;;;11.77;4.45;;;;;;;19.63;61.08;101340.31;15744544;28;20055;-69
2023/08/12 05:39:19;;;;;;;8.82;4.10;;;;;;;20.15;60.40;101328.03;15746809;28;20514;-71
2023/08/12 05:46:54;;;;;;;10.80;4.00;;;;;;;20.25;60.24;101331.66;15746185;28;20057;-69
2023/08/12 05:54:27;;;;;;;5.82;3.95;;;;;;;20.58;59.98;101343.38;15743022;28;20125;-70
2023/08/12 06:02:01;;;;;;;6.57;4.03;;;;;;;20.70;59.45;101335.00;15744061;28;20040;-70
2023/08/12 06:09:35;;;;;;;8.35;4.47;;;;;;;20.71;57.95;101333.94;15744072;28;20054;-70
2023/08/12 06:17:09;;;;;;;6.57;3.58;;;;;;;20.80;58.12;101344.09;15688690;28;20484;-71
2023/08/12 06:24:42;;;;;;;7.45;3.75;;;;;;;21.34;57.25;101343.00;15681275;28;20446;-71
2023/08/12 06:32:17;;;;;;;10.18;4.38;;;;;;;21.29;57.49;101335.56;15679347;28;20048;-70
2023/08/12 06:39:50;;;;;;;9.15;4.53;;;;;;;21.15;58.28;101339.88;15680455;28;20052;-71
2023/08/12 06:47:25;;;;;;;5.43;4.40;;;;;;;21.65;57.97;101328.34;15680880;28;20052;-71
2023/08/12 06:54:58;;;;;;;8.38;4.40;;;;;;;21.86;57.53;101325.63;15679523;28;20041;-70
2023/08/12 07:02:33;;;;;;;7.63;3.97;;;;;;;21.67;58.31;101316.31;15680137;28;20056;-71
2023/08/12 07:10:07;;;;;;;9.52;4.50;;;;;;;22.59;55.58;101311.72;15679310;28;20047;-71
2023/08/12 07:17:43;;;;;;;7.35;4.50;;;;;;;22.61;54.32;101298.56;15738180;28;20048;-70
2023/08/12 07:25:18;;;;;;;6.47;4.15;;;;;;;22.79;55.51;101295.22;15740715;28;20060;-68
2023/08/12 07:32:52;;;;;;;6.95;4.50;;;;;;;22.50;55.68;101299.69;15737903;28;20402;-71
2023/08/12 07:40:25;;;;;;;6.25;4.45;;;;;;;23.27;54.15;101290.16;15739044;28;20056;-70
2023/08/12 07:48:00;;;;;;;8.00;4.55;;;;;;;23.24;53.90;101287.16;15740252;28;20572;-70
2023/08/12 07:55:35;;;;;;;9.48;4.45;;;;;;;23.31;54.12;101298.59;15738784;28;20511;-71
2023/08/12 08:03:09;;;;;;;7.63;4.80;;;;;;;23.45;53.70;101290.59;15737847;28;20068;-72
2023/08/12 08:10:42;;;;;;;5.63;4.65;;;;;;;23.48;53.22;101287.28;15736656;28;20040;-70
2023/08/12 08:18:17;;;;;;;8.63;4.90;;;;;;;23.70;54.03;101287.72;15676339;28;20080;-71
2023/08/12 08:25:51;;;;;;;10.80;5.30;;;;;;;23.07;55.81;101293.78;15674214;28;20049;-69
2023/08/12 08:33:26;;;;;;;8.45;5.35;;;;;;;23.19;55.13;101292.66;15675385;28;20048;-70
2023/08/12 08:41:00;;;;;;;7.35;5.07;;;;;;;23.62;54.65;101288.28;15674167;28;20583;-71
2023/08/12 08:48:36;;;;;;;6.50;5.03;;;;;;;23.60;55.08;101285.84;15677606;23;20054;-50
2023/08/12 08:56:11;;;;;;;10.15;5.10;;;;;;;23.47;56.17;101285.66;15616836;28;20137;-51
2023/08/12 09:03:46;;;;;;;7.38;5.45;;;;;;;23.73;55.77;101276.16;15647771;22;20103;-57
2023/08/12 09:11:20;;;;;;;7.53;5.63;;;;;;;24.03;54.38;101277.88;15671082;28;20037;-59
2023/08/12 09:18:57;;;;;;;5.90;5.03;;;;;;;24.54;54.05;101285.66;15653423;28;20121;-57
2023/08/12 09:26:30;;;;;;;8.15;4.95;;;;;;;24.75;53.26;101271.69;15671034;28;20431;-57
2023/08/12 09:34:07;;;;;;;6.28;4.45;;;;;;;24.38;54.09;101274.00;15670647;28;20049;-57
2023/08/12 09:41:40;;;;;;;5.68;4.20;;;;;;;24.46;53.84;101277.22;15652558;28;20055;-55
2023/08/12 09:49:15;;;;;;;4.53;3.85;;;;;;;24.76;53.91;101273.31;15653081;28;20458;-56
2023/08/12 09:56:49;;;;;;;6.88;4.43;;;;;;;24.49;54.71;101274.72;15652697;28;20052;-58
2023/08/12 10:04:25;;;;;;;7.82;4.25;;;;;;;25.07;53.01;101247.13;15677407;28;20051;-55
2023/08/12 10:11:59;;;;;;;6.65;4.22;;;;;;;24.73;54.46;101244.53;15674976;28;20106;-57
2023/08/12 10:19:35;;;;;;;5.13;4.10;;;;;;;24.86;55.06;101241.06;15742801;28;20056;-58
2023/08/12 10:27:09;;;;;;;5.07;4.30;;;;;;;24.93;54.61;101216.00;15743190;28;20079;-59
2023/08/12 10:34:44;;;;;;;7.80;4.47;;;;;;;25.06;56.75;101250.16;15741623;28;20044;-57
2023/08/12 10:42:42;;;;;;;5.07;4.00;;;;;;;25.49;54.33;101234.44;15742018;28;20136;-60
2023/08/12 10:50:19;;;;;;;10.40;4.07;;;;;;;25.66;53.34;101231.16;15722038;28;20070;-58
2023/08/12 10:57:54;;;;;;;8.38;3.83;;;;;;;25.50;53.86;101233.31;15740262;28;20106;-56
2023/08/12 11:05:38;;;;;;;7.32;4.13;;;;;;;25.54;53.84;101222.56;15721793;28;20045;-58
2023/08/12 11:13:11;;;;;;;4.45;3.67;;;;;;;25.44;52.48;101240.84;15716222;28;20421;-59
2023/08/12 11:20:48;;;;;;;7.30;3.85;;;;;;;25.13;55.24;101248.72;15676510;28;20057;-58
2023/08/12 11:28:21;;;;;;;9.30;4.20;;;;;;;24.71;56.79;101252.22;15676206;28;20063;-57
2023/08/12 11:35:55;;;;;;;5.13;4.10;;;;;;;24.82;57.44;101244.69;15675909;28;20064;-53
2023/08/12 11:43:29;;;;;;;7.57;4.50;;;;;;;24.76;58.99;101270.56;15675596;28;20045;-58
2023/08/12 11:51:04;;;;;;;7.65;4.53;;;;;;;24.57;59.26;101251.28;15657780;28;20041;-58
2023/08/12 11:58:37;;;;;;;5.93;4.07;;;;;;;24.09;59.77;101246.53;15640054;28;20045;-58
2023/08/12 12:06:13;;;;;;;5.50;4.57;;;;;;;24.65;59.02;101239.69;15656195;28;20041;-58
2023/08/12 12:13:48;;;;;;;9.23;4.53;;;;;;;24.51;57.37;101206.63;15700989;28;20511;-58
2023/08/12 12:21:23;;;;;;;4.90;4.20;;;;;;;24.62;56.47;101152.41;15701737;28;20040;-59
2023/08/12 12:28:56;;;;;;;7.65;4.22;;;;;;;24.89;56.12;101132.56;15734539;28;20048;-58
2023/08/12 12:36:31;;;;;;;5.18;4.20;;;;;;;25.16;56.95;101132.72;15717137;28;20441;-56
2023/08/12 12:44:04;;;;;;;5.93;4.00;;;;;;;26.35;52.54;101122.09;15716711;28;20442;-58
2023/08/12 12:51:39;;;;;;;4.93;3.97;;;;;;;26.69;51.33;101129.09;15716400;28;20037;-59
2023/08/12 12:59:14;;;;;;;7.13;4.13;;;;;;;26.61;51.65;101107.78;15734335;28;20143;-59
2023/08/12 13:06:48;;;;;;;8.10;3.97;;;;;;;26.21;53.50;101115.78;15716948;28;20148;-56
2023/08/12 13:14:21;;;;;;;8.30;4.20;;;;;;;26.78;51.17;101088.69;15701851;28;20071;-57
2023/08/12 13:21:56;;;;;;;5.43;4.38;;;;;;;26.59;51.20;101101.78;15671291;28;20052;-58
2023/08/12 13:29:30;;;;;;;6.32;3.80;;;;;;;27.28;49.00;101085.03;15652295;28;20048;-58
2023/08/12 13:37:05;;;;;;;6.03;3.35;;;;;;;29.12;46.80;101070.31;15675384;28;20048;-58
2023/08/12 13:44:38;;;;;;;6.22;3.10;;;;;;;28.11;47.10;101077.00;15664691;28;20041;-58
2023/08/12 13:52:12;;;;;;;4.55;3.50;;;;;;;27.09;47.51;101066.78;15683136;28;20099;-59
2023/08/12 13:59:45;;;;;;;9.00;3.15;;;;;;;27.51;45.96;101072.03;15663255;28;20095;-58
2023/08/12 14:07:21;;;;;;;7.13;3.35;;;;;;;28.00;46.65;101054.41;15681209;28;20041;-57
2023/08/12 14:14:54;;;;;;;4.55;2.97;;;;;;;28.28;45.65;101048.66;15698683;28;20485;-58
2023/08/12 14:22:28;;;;;;;4.32;2.90;;;;;;;28.12;45.31;101049.09;15742119;28;20273;-58
2023/08/12 14:30:01;;;;;;;4.72;2.63;;;;;;;28.07;45.02;101038.22;15741509;28;20041;-57
2023/08/12 14:37:36;;;;;;;3.78;2.50;;;;;;;28.53;44.18;101030.50;15741323;28;20049;-59
2023/08/12 14:45:10;;;;;;;4.93;3.15;;;;;;;28.24;45.72;101020.88;15723641;28;20072;-58
2023/08/12 14:52:44;;;;;;;3.38;2.78;;;;;;;28.10;45.40;101020.19;15739508;28;20087;-57
2023/08/12 15:00:17;;;;;;;3.80;2.63;;;;;;;28.33;45.60;101002.38;15722734;28;20052;-57
2023/08/12 15:07:52;;;;;;;4.60;2.50;;;;;;;28.56;45.73;100993.97;15722386;28;20037;-52
2023/08/12 15:15:27;;;;;;;5.00;2.50;;;;;;;28.50;45.84;100998.84;15698677;28;20044;-55
2023/08/12 15:23:01;;;;;;;3.10;2.58;;;;;;;28.66;46.11;100994.44;15658433;28;20041;-56
2023/08/12 15:30:34;;;;;;;4.28;2.58;;;;;;;28.59;45.78;100988.59;15657658;28;20514;-57
2023/08/12 15:38:09;;;;;;;5.97;2.67;;;;;;;28.45;45.37;100974.97;15657938;28;20409;-55
2023/08/12 15:45:42;;;;;;;2.95;2.17;;;;;;;28.23;45.59;100983.34;15657808;28;20558;-56
2023/08/12 15:53:16;;;;;;;2.88;2.10;;;;;;;28.14;45.33;100975.06;15675333;28;20045;-53
2023/08/12 16:00:49;;;;;;;3.72;2.33;;;;;;;28.16;45.08;100967.25;15673481;28;20497;-56
2023/08/12 16:08:23;;;;;;;2.97;2.10;;;;;;;28.48;44.70;100965.19;15673764;28;20498;-49
2023/08/12 16:15:57;;;;;;;2.53;2.30;;;;;;;28.55;44.93;100950.91;15699844;28;20366;-52
2023/08/12 16:23:31;;;;;;;9.98;2.30;;;;;;;28.51;45.24;100941.66;15716699;28;20047;-51
2023/08/12 16:31:04;;;;;;;5.97;2.95;;;;;;;27.93;46.75;100941.78;15716588;28;20143;-51
2023/08/12 16:38:39;;;;;;;3.35;2.40;;;;;;;28.43;45.79;100926.69;15735012;28;20048;-50
2023/08/12 16:46:12;;;;;;;4.88;2.42;;;;;;;28.10;46.67;100918.88;15736220;28;20044;-53
2023/08/12 16:53:46;;;;;;;4.15;2.20;;;;;;;28.21;46.64;100930.41;15715998;28;20123;-53
2023/08/12 17:01:21;;;;;;;4.95;2.75;;;;;;;28.15;47.22;100942.75;15715387;28;20139;-49
2023/08/12 17:08:55;;;;;;;7.35;2.97;;;;;;;27.72;47.45;100940.75;15699137;28;20067;-51
2023/08/12 17:16:31;;;;;;;3.53;2.80;;;;;;;27.47;48.44;100936.75;15695954;28;20053;-52
2023/08/12 17:24:06;;;;;;;6.20;2.67;;;;;;;27.79;47.82;100938.31;15665410;28;20480;-55
2023/08/12 17:31:38;;;;;;;6.93;2.50;;;;;;;27.88;47.67;100930.06;15682903;28;20059;-52
2023/08/12 17:39:13;;;;;;;6.13;2.72;;;;;;;28.00;47.91;100934.97;15665278;28;20148;-53
2023/08/12 17:46:46;;;;;;;5.43;2.83;;;;;;;27.97;48.24;100934.44;15682646;28;20386;-49
2023/08/12 17:54:20;;;;;;;5.40;2.90;;;;;;;27.27;51.32;100968.44;15681779;28;20048;-49
2023/08/12 18:01:53;;;;;;;4.97;3.00;;;;;;;25.30;58.64;100972.59;15663261;28;20060;-49
2023/08/12 18:09:28;;;;;;;4.97;3.60;;;;;;;24.21;64.20;101009.44;15681557;28;20055;-58
2023/08/12 18:17:01;;;;;;;4.03;3.60;;;;;;;23.91;65.24;101016.94;15699354;28;20045;-54
2023/08/12 18:24:36;;;;;;;8.65;4.40;;;;;;;23.67;67.72;101022.44;15724771;28;20095;-55
2023/08/12 18:32:09;;;;;;;5.25;4.05;;;;;;;23.14;68.99;101025.94;15742338;28;20062;-55
2023/08/12 18:39:44;;;;;;;8.40;4.18;;;;;;;23.13;69.14;101032.53;15723352;28;20402;-55
2023/08/12 18:47:17;;;;;;;6.10;3.85;;;;;;;23.32;68.72;101031.81;15741097;28;20056;-54
2023/08/12 18:54:52;;;;;;;4.82;4.10;;;;;;;22.84;70.32;101032.44;15740809;28;20040;-55
2023/08/12 19:02:25;;;;;;;9.32;4.00;;;;;;;23.07;70.24;101024.63;15721931;28;20185;-51
2023/08/12 19:09:59;;;;;;;5.18;4.05;;;;;;;23.47;69.61;101037.13;15721956;28;20117;-55
2023/08/12 19:17:34;;;;;;;6.07;4.45;;;;;;;23.57;69.95;101037.03;15664033;28;20103;-51
2023/08/12 19:25:08;;;;;;;9.20;4.93;;;;;;;23.45;70.33;101031.13;15677680;28;20041;-55
2023/08/12 19:32:49;;;;;;;7.00;5.03;;;;;;;23.35;70.31;101029.28;15674921;28;20474;-50
2023/08/12 19:40:24;;;;;;;11.15;5.22;;;;;;;23.30;70.78;101036.75;15657916;28;20044;-53
2023/08/12 19:47:57;;;;;;;9.45;4.82;;;;;;;23.37;70.02;101035.31;15674789;28;20122;-50
2023/08/12 19:55:32;;;;;;;6.55;4.63;;;;;;;23.34;71.02;101040.56;15656217;28;20040;-57
2023/08/12 20:03:05;;;;;;;5.75;4.65;;;;;;;23.11;70.89;101048.41;15673816;28;20041;-54
2023/08/12 20:10:40;;;;;;;10.73;5.18;;;;;;;23.05;71.00;101038.63;15657138;28;20139;-53
2023/08/12 20:18:13;;;;;;;5.80;4.93;;;;;;;23.16;69.90;101053.84;15735565;28;20551;-51
2023/08/12 20:25:47;;;;;;;7.90;5.28;;;;;;;22.81;71.24;101068.59;15735297;28;20059;-52
2023/08/12 20:33:20;;;;;;;7.85;4.82;;;;;;;22.86;70.55;101063.09;15734931;28;20469;-50
2023/08/12 20:40:55;;;;;;;7.60;5.80;;;;;;;22.55;71.84;101089.00;15716429;28;20036;-50
2023/08/12 20:48:28;;;;;;;8.40;6.18;;;;;;;22.51;72.67;101090.66;15730452;28;20067;-52
2023/08/12 20:56:02;;;;;;;7.93;6.38;;;;;;;22.54;72.76;101101.06;15637751;28;20056;-48
2023/08/12 21:03:35;;;;;;;8.25;6.28;;;;;;;22.66;72.36;101096.03;15671866;28;20041;-56
2023/08/12 21:11:11;;;;;;;8.90;6.55;;;;;;;22.65;71.88;101108.91;15659270;28;20045;-55
2023/08/12 21:18:44;;;;;;;8.15;6.50;;;;;;;22.53;72.24;101113.91;15715516;28;20090;-53
2023/08/12 21:26:18;;;;;;;9.35;6.38;;;;;;;22.51;71.97;101118.84;15732859;28;20092;-54
2023/08/12 21:33:53;;;;;;;11.73;8.85;;;;;;;22.50;71.96;101116.38;15715568;28;20045;-56
2023/08/12 21:41:27;;;;;;;10.30;8.45;;;;;;;22.39;71.82;101119.19;15732743;28;20048;-56
2023/08/12 21:49:01;;;;;;;12.23;7.72;;;;;;;22.24;72.99;101124.69;15715260;28;20430;-53
2023/08/12 21:56:36;;;;;;;7.60;6.72;;;;;;;22.04;73.17;101133.75;15717666;28;20097;-56
2023/08/12 22:04:09;;;;;;;7.82;4.95;;;;;;;21.41;75.18;101137.94;15711004;28;20041;-55
2023/08/12 22:11:43;;;;;;;5.32;4.20;;;;;;;21.76;74.39;101148.81;15716645;28;20110;-56
2023/08/12 22:19:16;;;;;;;7.68;3.42;;;;;;;21.92;74.06;101155.09;15681953;28;20382;-57
2023/08/12 22:26:52;;;;;;;4.80;3.45;;;;;;;21.85;74.30;101162.75;15665343;28;20154;-54
2023/08/12 22:34:25;;;;;;;4.78;2.95;;;;;;;21.70;73.33;101166.34;15663779;28;20148;-55
2023/08/12 22:41:59;;;;;;;3.92;3.05;;;;;;;21.51;73.41;101174.25;15679096;28;20114;-51
2023/08/12 22:49:32;;;;;;;3.40;2.80;;;;;;;21.37;73.64;101170.44;15679491;28;20128;-52
2023/08/12 22:57:07;;;;;;;2.90;2.60;;;;;;;21.39;73.46;101173.69;15678967;28;20382;-55
2023/08/12 23:04:40;;;;;;;3.47;2.60;;;;;;;21.60;72.45;101182.72;15678039;28;20045;-51
2023/08/12 23:12:17;;;;;;;4.97;2.80;;;;;;;21.51;72.56;101185.19;15672724;28;20064;-54
2023/08/12 23:19:51;;;;;;;3.90;2.80;;;;;;;21.11;74.15;101199.56;15738977;28;20449;-56
2023/08/12 23:27:26;;;;;;;4.90;3.17;;;;;;;21.34;73.79;101201.00;15738355;28;20063;-57
2023/08/12 23:34:59;;;;;;;5.00;3.33;;;;;;;21.27;73.78;101201.25;15719970;28;20040;-55
2023/08/12 23:42:33;;;;;;;5.85;3.20;;;;;;;21.24;74.37;101209.97;15737937;28;20464;-54
2023/08/12 23:50:08;;;;;;;4.88;3.00;;;;;;;20.93;75.50;101210.97;15719370;28;20163;-53
2023/08/12 23:57:42;;;;;;;4.82;3.47;;;;;;;21.35;73.30;101224.47;15736472;28;20128;-53
